Time;durP1;ratioP1;P1;durP2;ratioP2;P2;SDS_P1;SDS_P2;PMS_P1;PMS_P2;Temp;Humidity;BMP_temperature;BMP_pressure;BME280_temperature;BME280_humidity;BME280_pressure;Samples;Min_cycle;Max_cycle;Signal;HPM_P1;HPM_P2
2021/12/28 00:01:31;;;;;;;17.92;10.60;;;28.80;88.00;;;;;;5063327;28;20306;-49
2021/12/28 00:03:58;;;;;;;15.57;9.80;;;28.80;88.00;;;;;;5063969;28;20037;-45
2021/12/28 00:06:25;;;;;;;17.52;10.27;;;28.80;88.10;;;;;;5045767;28;20013;-45
2021/12/28 00:08:52;;;;;;;23.73;10.52;;;28.80;88.10;;;;;;5063883;28;20194;-52
2021/12/28 00:11:18;;;;;;;18.77;10.07;;;28.80;88.10;;;;;;5063764;28;20017;-49
2021/12/28 00:13:45;;;;;;;13.85;9.55;;;28.80;88.10;;;;;;5063749;28;20044;-45
2021/12/28 00:18:45;;;;;;;14.30;9.35;;;28.80;88.20;;;;;;5063706;28;20025;-47
2021/12/28 00:21:11;;;;;;;18.05;9.48;;;28.80;88.20;;;;;;5063326;28;20281;-52
2021/12/28 00:23:39;;;;;;;15.13;9.02;;;28.80;88.20;;;;;;5063505;28;20028;-46
2021/12/28 00:26:12;;;;;;;18.67;9.25;;;28.80;88.20;;;;;;5063412;28;20324;-53
2021/12/28 00:28:39;;;;;;;13.60;8.57;;;28.80;88.20;;;;;;5063438;28;20096;-42
2021/12/28 00:31:07;;;;;;;12.38;8.85;;;28.80;88.20;;;;;;5063019;28;20045;-53
2021/12/28 00:33:33;;;;;;;17.45;9.10;;;28.80;88.20;;;;;;5063372;28;20041;-49
2021/12/28 00:36:00;;;;;;;12.70;8.35;;;28.80;88.30;;;;;;5063265;28;20245;-42
2021/12/28 00:38:28;;;;;;;15.63;8.25;;;28.80;88.30;;;;;;5063508;28;20221;-45
2021/12/28 00:40:58;;;;;;;10.20;7.45;;;28.80;88.30;;;;;;5063267;28;20020;-52
2021/12/28 00:43:26;;;;;;;11.02;7.88;;;28.80;88.40;;;;;;5029344;28;20056;-53
2021/12/28 00:45:53;;;;;;;11.10;7.20;;;28.70;88.30;;;;;;5063181;28;20017;-47
2021/12/28 00:48:20;;;;;;;10.30;7.28;;;28.70;88.30;;;;;;5063239;28;20029;-49
2021/12/28 00:50:48;;;;;;;11.65;7.40;;;28.70;88.30;;;;;;5063206;28;20017;-50
2021/12/28 00:53:16;;;;;;;12.52;7.10;;;28.70;88.40;;;;;;5063178;28;20049;-49
2021/12/28 00:55:43;;;;;;;8.50;6.88;;;28.70;88.40;;;;;;5062638;28;20205;-45
2021/12/28 00:58:09;;;;;;;12.32;7.18;;;28.80;88.50;;;;;;5066620;28;20313;-45
2021/12/28 01:00:38;;;;;;;10.93;6.40;;;28.70;88.40;;;;;;5066825;28;20078;-44
2021/12/28 01:03:09;;;;;;;9.70;6.63;;;28.70;88.50;;;;;;5066587;28;20302;-47
2021/12/28 01:05:37;;;;;;;8.00;6.10;;;28.70;88.40;;;;;;5049099;28;20028;-50
2021/12/28 01:08:05;;;;;;;14.18;6.57;;;28.70;88.40;;;;;;5066716;28;20100;-48
2021/12/28 01:10:41;;;;;;;11.25;5.82;;;28.70;88.60;;;;;;5066705;28;20013;-49
2021/12/28 01:13:09;;;;;;;10.15;5.88;;;28.70;88.80;;;;;;5066519;28;20044;-53
2021/12/28 01:15:36;;;;;;;36.47;7.38;;;28.70;88.90;;;;;;5066629;28;20392;-49
2021/12/28 01:18:03;;;;;;;44.60;8.25;;;28.70;88.90;;;;;;5066488;28;20032;-42
2021/12/28 01:20:30;;;;;;;22.25;7.05;;;28.70;88.90;;;;;;5066207;28;20064;-48
2021/12/28 01:22:57;;;;;;;16.15;6.47;;;28.70;88.90;;;;;;5066482;28;20020;-49
2021/12/28 01:25:24;;;;;;;18.25;6.13;;;28.60;88.90;;;;;;5060880;28;20334;-48
2021/12/28 01:27:52;;;;;;;17.25;6.40;;;28.60;88.80;;;;;;5052434;28;20044;-46
2021/12/28 01:30:20;;;;;;;17.90;6.22;;;28.60;89.10;;;;;;5047759;28;20045;-49
2021/12/28 01:32:50;;;;;;;15.75;6.00;;;28.60;88.90;;;;;;5054601;28;20057;-51
2021/12/28 01:35:18;;;;;;;18.42;6.60;;;28.60;88.90;;;;;;5064566;28;20337;-51
2021/12/28 01:37:45;;;;;;;13.40;6.05;;;28.60;88.80;;;;;;5063084;28;20048;-48
2021/12/28 01:40:16;;;;;;;13.95;6.57;;;28.60;88.80;;;;;;5055619;28;20245;-45
2021/12/28 01:43:13;;;;;;;11.07;5.43;;;28.70;88.80;;;;;;5045844;28;20025;-53
2021/12/28 01:45:51;;;;;;;10.32;5.93;;;28.70;88.60;;;;;;5055618;28;20071;-55
2021/12/28 01:48:40;;;;;;;6.55;4.82;;;28.70;88.60;;;;;;5056296;28;20024;-52
2021/12/28 01:51:12;;;;;;;13.93;5.75;;;28.70;88.60;;;;;;5056472;28;20067;-51
2021/12/28 01:53:39;;;;;;;;;;;28.70;88.50;;;;;;5046595;28;20067;-52
2021/12/28 01:56:18;;;;;;;16.27;6.28;;;28.60;88.30;;;;;;5059556;28;20003;-45
2021/12/28 01:58:44;;;;;;;26.55;7.22;;;28.60;88.40;;;;;;5059669;28;20039;-52
2021/12/28 02:01:11;;;;;;;22.75;6.30;;;28.60;88.30;;;;;;5056057;28;20024;-50
2021/12/28 02:03:40;;;;;;;14.32;6.53;;;28.60;88.20;;;;;;5057680;28;20041;-53
2021/12/28 02:06:07;;;;;;;16.38;6.40;;;28.60;88.20;;;;;;5062465;28;20013;-52
2021/12/28 02:08:35;;;;;;;14.93;5.97;;;28.60;88.10;;;;;;5054314;28;20052;-45
2021/12/28 02:11:01;;;;;;;18.20;5.50;;;28.60;88.00;;;;;;5050782;28;20389;-47
2021/12/28 02:13:28;;;;;;;12.02;5.63;;;28.60;87.90;;;;;;5045428;28;20241;-48
2021/12/28 02:15:56;;;;;;;10.90;5.20;;;28.60;87.90;;;;;;5045276;28;20337;-43
2021/12/28 02:18:25;;;;;;;13.95;5.47;;;28.60;87.90;;;;;;5045313;28;20245;-45
2021/12/28 02:20:53;;;;;;;11.52;5.35;;;28.60;87.80;;;;;;5060824;28;20041;-47
2021/12/28 02:23:20;;;;;;;9.70;5.47;;;28.60;87.70;;;;;;5045204;28;20092;-50
2021/12/28 02:25:47;;;;;;;13.07;5.97;;;28.60;87.80;;;;;;5045235;28;20035;-51
2021/12/28 02:28:14;;;;;;;11.88;6.55;;;28.60;87.80;;;;;;5045163;28;20021;-52
2021/12/28 02:30:47;;;;;;;10.80;5.97;;;28.60;87.80;;;;;;5044973;28;20061;-53
2021/12/28 02:33:14;;;;;;;11.60;6.18;;;28.60;87.70;;;;;;5067766;28;20034;-44
2021/12/28 02:35:43;;;;;;;11.95;6.15;;;28.60;87.70;;;;;;5064775;28;20021;-45
2021/12/28 02:38:11;;;;;;;10.05;5.00;;;28.60;87.70;;;;;;5054099;28;20021;-44
2021/12/28 02:40:40;;;;;;;10.32;5.65;;;28.60;87.60;;;;;;5063043;28;20025;-43
2021/12/28 02:43:10;;;;;;;9.93;5.47;;;28.60;87.60;;;;;;5064535;28;20080;-51
2021/12/28 02:45:39;;;;;;;10.88;5.80;;;28.60;87.60;;;;;;5047114;28;20021;-48
2021/12/28 02:48:07;;;;;;;6.40;5.25;;;28.60;87.60;;;;;;5064780;28;20040;-45
2021/12/28 02:50:41;;;;;;;12.85;5.35;;;28.50;87.50;;;;;;5064610;28;20036;-48
2021/12/28 02:53:09;;;;;;;8.73;5.57;;;28.60;87.50;;;;;;5064505;28;20024;-47
2021/12/28 02:55:37;;;;;;;12.05;5.47;;;28.60;87.50;;;;;;5064545;28;20166;-51
2021/12/28 02:58:11;;;;;;;10.57;5.40;;;28.50;87.40;;;;;;5064594;28;20096;-47
2021/12/28 03:00:45;;;;;;;8.00;5.70;;;28.60;87.50;;;;;;5064488;28;20029;-47
2021/12/28 03:03:17;;;;;;;8.25;5.18;;;28.60;87.50;;;;;;5064133;28;20067;-47
2021/12/28 03:05:46;;;;;;;8.60;5.80;;;28.50;87.40;;;;;;5064587;28;20021;-49
2021/12/28 03:08:15;;;;;;;9.65;6.13;;;28.50;87.40;;;;;;5064465;28;20082;-44
2021/12/28 03:10:43;;;;;;;9.90;5.75;;;28.50;87.40;;;;;;5064260;28;20384;-43
2021/12/28 03:13:19;;;;;;;10.48;5.45;;;28.50;87.40;;;;;;5064326;28;20025;-49
2021/12/28 03:15:45;;;;;;;8.23;5.40;;;28.50;87.30;;;;;;5064146;28;20032;-49
2021/12/28 03:18:12;;;;;;;9.80;5.50;;;28.50;87.30;;;;;;5064407;28;20016;-49
2021/12/28 03:20:40;;;;;;;9.52;5.07;;;28.50;87.30;;;;;;5063923;28;20036;-48
2021/12/28 03:23:06;;;;;;;7.57;5.03;;;28.50;87.30;;;;;;5063866;28;20029;-45
2021/12/28 03:25:34;;;;;;;8.07;4.75;;;28.50;87.20;;;;;;5057168;28;20045;-45
2021/12/28 03:28:01;;;;;;;9.20;5.13;;;28.50;87.20;;;;;;5052658;28;20317;-49
2021/12/28 03:30:28;;;;;;;8.40;4.95;;;28.50;87.20;;;;;;5043666;28;20053;-52
2021/12/28 03:32:55;;;;;;;11.20;5.45;;;28.50;87.20;;;;;;5043744;28;20025;-49
2021/12/28 03:35:22;;;;;;;8.95;5.13;;;28.50;87.10;;;;;;5043962;28;20025;-49
2021/12/28 03:37:49;;;;;;;7.35;5.00;;;28.50;87.10;;;;;;5043887;28;20368;-55
2021/12/28 03:40:16;;;;;;;7.82;4.80;;;28.50;87.10;;;;;;5043877;28;20059;-45
2021/12/28 03:42:44;;;;;;;5.80;4.55;;;28.50;87.10;;;;;;5043764;28;20032;-47
2021/12/28 03:45:11;;;;;;;8.48;4.88;;;28.50;87.10;;;;;;5044236;28;20024;-47
2021/12/28 03:47:38;;;;;;;6.85;4.82;;;28.50;87.10;;;;;;5043723;28;20017;-45
2021/12/28 03:50:07;;;;;;;8.32;5.25;;;28.50;87.10;;;;;;5044193;28;20022;-49
2021/12/28 03:52:34;;;;;;;6.30;4.80;;;28.50;87.10;;;;;;5043537;28;20022;-47
2021/12/28 03:55:01;;;;;;;7.25;4.88;;;28.40;87.00;;;;;;5044098;28;20021;-46
2021/12/28 03:57:27;;;;;;;7.13;4.70;;;28.50;87.00;;;;;;5026222;28;20317;-44
2021/12/28 03:59:54;;;;;;;8.10;4.40;;;28.50;87.00;;;;;;5044066;28;20025;-47
2021/12/28 04:02:20;;;;;;;5.63;4.55;;;28.50;87.00;;;;;;5043685;28;20259;-51
2021/12/28 04:04:47;;;;;;;6.47;5.00;;;28.50;87.00;;;;;;5044163;28;20298;-47
2021/12/28 04:07:18;;;;;;;9.00;4.82;;;28.40;86.90;;;;;;5043546;28;20084;-44
2021/12/28 04:12:20;;;;;;;10.80;4.63;;;28.40;86.90;;;;;;5043642;28;20088;-43
2021/12/28 04:14:48;;;;;;;8.85;4.90;;;28.40;86.90;;;;;;5043796;28;20100;-50
2021/12/28 04:17:15;;;;;;;8.55;4.10;;;28.40;86.90;;;;;;5043470;28;20025;-45
2021/12/28 04:19:42;;;;;;;6.38;4.78;;;28.40;86.90;;;;;;5043875;28;20278;-45
2021/12/28 04:22:08;;;;;;;6.45;4.32;;;28.40;86.90;;;;;;5043178;28;20048;-44
2021/12/28 04:24:35;;;;;;;9.07;4.40;;;28.40;86.90;;;;;;5043658;28;20021;-51
2021/12/28 04:27:02;;;;;;;5.57;4.55;;;28.40;86.90;;;;;;5043530;28;20021;-46
2021/12/28 04:29:28;;;;;;;7.35;4.45;;;28.40;86.90;;;;;;5058714;28;20356;-46
2021/12/28 04:31:56;;;;;;;6.95;4.57;;;28.40;86.90;;;;;;5049884;28;20012;-49
2021/12/28 04:34:23;;;;;;;6.57;4.43;;;28.40;86.90;;;;;;5060279;28;20025;-53
2021/12/28 04:36:51;;;;;;;7.35;4.93;;;28.40;86.90;;;;;;5064135;28;20365;-48
2021/12/28 04:39:18;;;;;;;6.13;4.65;;;28.40;87.10;;;;;;5056317;28;20100;-47
2021/12/28 04:41:44;;;;;;;6.63;4.40;;;28.40;86.90;;;;;;5048988;28;20253;-47
2021/12/28 04:44:13;;;;;;;8.30;4.47;;;28.40;86.90;;;;;;5066909;28;20021;-51
2021/12/28 04:46:40;;;;;;;6.18;4.22;;;28.40;86.90;;;;;;5067091;28;20017;-50
2021/12/28 04:49:07;;;;;;;7.07;4.18;;;28.40;86.90;;;;;;5067321;28;20021;-49
2021/12/28 04:51:34;;;;;;;4.93;4.13;;;28.30;86.90;;;;;;5066932;28;20020;-50
2021/12/28 04:54:06;;;;;;;6.85;4.45;;;28.40;87.00;;;;;;5067055;28;20033;-49
2021/12/28 04:56:32;;;;;;;5.93;4.30;;;28.30;86.90;;;;;;5067042;28;20027;-48
2021/12/28 04:58:59;;;;;;;9.13;4.85;;;28.40;87.00;;;;;;5066996;28;20103;-50
2021/12/28 05:01:25;;;;;;;9.32;5.13;;;28.40;87.00;;;;;;5066861;28;20025;-53
2021/12/28 05:03:52;;;;;;;6.25;4.30;;;28.40;87.10;;;;;;5066966;28;20036;-49
2021/12/28 05:06:18;;;;;;;8.55;4.75;;;28.40;87.10;;;;;;5059263;28;20076;-56
2021/12/28 05:08:45;;;;;;;7.38;4.80;;;28.40;87.10;;;;;;5055647;28;20088;-44
2021/12/28 05:11:12;;;;;;;6.97;4.53;;;28.40;87.10;;;;;;5046630;28;20017;-47
2021/12/28 05:13:38;;;;;;;6.07;4.53;;;28.30;87.10;;;;;;5046538;28;20033;-48
2021/12/28 05:16:06;;;;;;;8.32;5.03;;;28.30;87.10;;;;;;5046490;28;20029;-50
2021/12/28 05:18:33;;;;;;;8.48;4.78;;;28.40;87.20;;;;;;5046875;28;20036;-43
2021/12/28 05:20:59;;;;;;;8.18;4.80;;;28.30;87.10;;;;;;5028527;28;20017;-49
2021/12/28 05:23:26;;;;;;;5.90;4.32;;;28.30;87.10;;;;;;5046409;28;20021;-49
2021/12/28 05:25:52;;;;;;;7.40;4.65;;;28.30;87.10;;;;;;5046255;28;20036;-46
2021/12/28 05:28:22;;;;;;;8.30;5.00;;;28.30;87.10;;;;;;5046425;28;20086;-50
2021/12/28 05:30:48;;;;;;;8.65;5.25;;;28.30;87.10;;;;;;5046215;28;20280;-48
2021/12/28 05:33:16;;;;;;;6.57;4.82;;;28.30;87.10;;;;;;5046345;28;20021;-46
2021/12/28 05:35:42;;;;;;;6.97;4.85;;;28.30;87.20;;;;;;5046519;28;20037;-56
2021/12/28 05:38:11;;;;;;;8.85;4.85;;;28.30;87.20;;;;;;5055588;28;20017;-46
2021/12/28 05:40:39;;;;;;;7.65;4.82;;;28.30;87.20;;;;;;5048415;28;20202;-47
2021/12/28 05:43:05;;;;;;;7.70;5.25;;;28.30;87.30;;;;;;5064649;28;20020;-47
2021/12/28 05:45:33;;;;;;;6.93;4.90;;;28.30;87.30;;;;;;5066059;28;20165;-50
2021/12/28 05:47:59;;;;;;;8.23;4.47;;;28.30;87.40;;;;;;5066106;28;20021;-52
2021/12/28 05:50:26;;;;;;;7.60;4.95;;;28.30;87.40;;;;;;5065879;28;20016;-44
2021/12/28 05:52:52;;;;;;;8.65;5.10;;;28.30;87.50;;;;;;5065760;28;20021;-47
2021/12/28 05:55:19;;;;;;;6.97;4.78;;;28.30;87.60;;;;;;5066566;28;20045;-52
2021/12/28 05:57:45;;;;;;;8.73;4.97;;;28.30;87.70;;;;;;5065796;28;20027;-50
2021/12/28 06:00:13;;;;;;;11.50;5.32;;;28.30;87.70;;;;;;5066436;28;20056;-50
2021/12/28 06:02:41;;;;;;;8.73;4.78;;;28.30;87.70;;;;;;5065806;28;20029;-50
2021/12/28 06:05:09;;;;;;;7.90;4.68;;;28.30;87.80;;;;;;5066224;28;20021;-54
2021/12/28 06:07:35;;;;;;;7.18;4.38;;;28.30;87.80;;;;;;5065763;28;20063;-46
2021/12/28 06:10:04;;;;;;;6.00;4.53;;;28.30;87.70;;;;;;5065441;28;20056;-50
2021/12/28 06:12:30;;;;;;;7.07;4.78;;;28.30;87.70;;;;;;5065369;28;20313;-51
2021/12/28 06:14:57;;;;;;;7.60;5.07;;;28.30;87.60;;;;;;5061155;28;20039;-50
2021/12/28 06:17:24;;;;;;;9.27;4.85;;;28.30;87.60;;;;;;5057312;28;20301;-45
2021/12/28 06:19:51;;;;;;;9.25;4.80;;;28.30;87.60;;;;;;5065765;28;20298;-45
2021/12/28 06:22:17;;;;;;;7.30;4.55;;;28.30;87.60;;;;;;5065338;28;20088;-49
2021/12/28 06:24:44;;;;;;;8.52;4.90;;;28.30;87.60;;;;;;5065820;28;20025;-47
2021/12/28 06:27:11;;;;;;;7.32;4.97;;;28.20;87.60;;;;;;5065157;28;20070;-49
2021/12/28 06:29:37;;;;;;;8.18;4.45;;;28.30;87.70;;;;;;5065459;28;20049;-42
2021/12/28 06:32:04;;;;;;;5.43;4.32;;;28.30;87.80;;;;;;5065182;28;20020;-45
2021/12/28 06:34:30;;;;;;;9.55;4.75;;;28.20;87.80;;;;;;5065467;28;20017;-47
2021/12/28 06:36:57;;;;;;;9.30;4.80;;;28.20;87.80;;;;;;5065082;28;20029;-44
2021/12/28 06:39:24;;;;;;;9.02;4.40;;;28.30;87.90;;;;;;5065226;28;20029;-43
2021/12/28 06:41:50;;;;;;;6.78;4.38;;;28.20;87.90;;;;;;5065023;28;20039;-47
2021/12/28 06:44:17;;;;;;;8.30;4.45;;;28.20;88.00;;;;;;5065215;28;20021;-55
2021/12/28 06:46:44;;;;;;;6.32;4.43;;;28.20;88.00;;;;;;5064942;28;20028;-43
2021/12/28 06:49:10;;;;;;;7.95;4.20;;;28.20;88.00;;;;;;5065104;28;20063;-52
2021/12/28 06:51:37;;;;;;;8.30;5.07;;;28.20;88.10;;;;;;5064825;28;20209;-43
2021/12/28 06:54:04;;;;;;;7.15;4.60;;;28.20;88.10;;;;;;5064380;28;20048;-44
2021/12/28 06:56:31;;;;;;;8.27;4.43;;;28.20;88.10;;;;;;5064765;28;20017;-44
2021/12/28 06:58:58;;;;;;;6.50;4.30;;;28.20;88.20;;;;;;5064790;28;20029;-48
2021/12/28 07:01:24;;;;;;;6.47;4.40;;;28.20;88.20;;;;;;5064430;28;20305;-47
2021/12/28 07:03:52;;;;;;;10.18;4.93;;;28.20;88.30;;;;;;5064576;28;20309;-49
2021/12/28 07:06:19;;;;;;;6.75;4.88;;;28.20;88.30;;;;;;5064331;28;20337;-50
2021/12/28 07:08:46;;;;;;;11.02;5.15;;;28.20;88.30;;;;;;5064582;28;20017;-46
2021/12/28 07:11:12;;;;;;;9.43;4.60;;;28.20;88.30;;;;;;5064382;28;20321;-47
2021/12/28 07:13:39;;;;;;;7.90;4.68;;;28.20;88.30;;;;;;5064105;28;20086;-45
2021/12/28 07:16:05;;;;;;;9.70;4.95;;;28.20;88.30;;;;;;5064149;28;20021;-53
2021/12/28 07:18:32;;;;;;;5.45;4.32;;;28.20;88.40;;;;;;5064369;28;20070;-50
2021/12/28 07:21:00;;;;;;;7.40;4.55;;;28.20;88.40;;;;;;5064009;28;20316;-46
2021/12/28 07:23:27;;;;;;;5.88;4.07;;;28.20;88.50;;;;;;5064196;28;20055;-48
2021/12/28 07:25:54;;;;;;;8.07;4.47;;;28.20;88.50;;;;;;5064118;28;20021;-46
2021/12/28 07:28:22;;;;;;;7.43;4.70;;;28.20;88.50;;;;;;5063987;28;20028;-49
2021/12/28 07:30:49;;;;;;;7.80;4.25;;;28.20;88.60;;;;;;5063344;28;20340;-49
2021/12/28 07:33:16;;;;;;;7.53;4.40;;;28.20;88.60;;;;;;5064041;28;20024;-48
2021/12/28 07:35:43;;;;;;;8.23;4.43;;;28.20;88.60;;;;;;5062742;28;20032;-51
2021/12/28 07:38:09;;;;;;;8.85;4.50;;;28.20;88.60;;;;;;5063779;28;20017;-51
2021/12/28 07:40:36;;;;;;;8.43;4.70;;;28.20;88.60;;;;;;5064218;28;20213;-48
2021/12/28 07:43:03;;;;;;;7.35;4.72;;;28.20;88.60;;;;;;5063678;28;20013;-47
2021/12/28 07:45:30;;;;;;;7.38;4.60;;;28.20;88.60;;;;;;5063877;28;20009;-45
2021/12/28 07:47:57;;;;;;;4.88;4.30;;;28.10;88.60;;;;;;5063778;28;20024;-52
2021/12/28 07:50:23;;;;;;;8.23;4.78;;;28.20;88.70;;;;;;5063663;28;20323;-51
2021/12/28 07:52:52;;;;;;;6.32;4.25;;;28.10;88.60;;;;;;5063787;28;20078;-48
2021/12/28 07:55:19;;;;;;;6.30;4.60;;;28.10;88.60;;;;;;5063678;28;20033;-52
2021/12/28 07:57:45;;;;;;;8.05;4.32;;;28.10;88.60;;;;;;5063549;28;20059;-52
2021/12/28 08:00:17;;;;;;;10.27;4.38;;;28.10;88.70;;;;;;5064145;28;20217;-51
2021/12/28 08:02:45;;;;;;;7.10;4.53;;;28.10;88.70;;;;;;5063669;28;20032;-48
2021/12/28 08:05:13;;;;;;;9.00;4.50;;;28.10;88.70;;;;;;5064002;28;20313;-52
2021/12/28 08:07:39;;;;;;;6.72;4.60;;;28.10;88.70;;;;;;5065688;28;20216;-48
2021/12/28 08:10:10;;;;;;;9.00;4.47;;;28.10;88.70;;;;;;5068313;28;20044;-51
2021/12/28 08:12:37;;;;;;;9.88;4.68;;;28.10;88.70;;;;;;5067670;28;20039;-50
2021/12/28 08:15:04;;;;;;;6.25;4.35;;;28.10;88.80;;;;;;5068151;28;20213;-46
2021/12/28 08:17:31;;;;;;;8.63;4.60;;;28.10;88.80;;;;;;5067547;28;20017;-48
2021/12/28 08:19:58;;;;;;;10.38;4.53;;;28.10;88.80;;;;;;5067883;28;20029;-51
2021/12/28 08:22:25;;;;;;;8.27;4.90;;;28.10;88.80;;;;;;5067495;28;20024;-55
2021/12/28 08:24:51;;;;;;;8.05;4.65;;;28.10;88.80;;;;;;5067971;28;20028;-50
2021/12/28 08:27:18;;;;;;;8.80;4.70;;;28.10;88.80;;;;;;5067358;28;20085;-49
2021/12/28 08:29:44;;;;;;;7.57;4.75;;;28.10;88.80;;;;;;5067614;28;20037;-51
2021/12/28 08:32:11;;;;;;;10.00;4.72;;;28.10;88.80;;;;;;5067358;28;20072;-46
2021/12/28 08:34:37;;;;;;;7.93;4.38;;;28.10;88.80;;;;;;5067546;28;20027;-50
2021/12/28 08:37:04;;;;;;;7.05;4.28;;;28.10;88.70;;;;;;5067273;28;20017;-48
2021/12/28 08:39:31;;;;;;;9.38;4.63;;;28.10;88.70;;;;;;5067188;28;20032;-47
2021/12/28 08:41:57;;;;;;;7.22;4.30;;;28.10;88.70;;;;;;5066939;28;20244;-48
2021/12/28 08:44:27;;;;;;;8.63;4.80;;;28.10;88.60;;;;;;5067473;28;20025;-52
2021/12/28 08:46:55;;;;;;;11.38;4.82;;;28.10;88.60;;;;;;5067047;28;20021;-49
2021/12/28 08:49:23;;;;;;;9.98;4.55;;;28.10;88.60;;;;;;5067180;28;20367;-50
2021/12/28 08:51:49;;;;;;;6.07;4.50;;;28.10;88.60;;;;;;5067034;28;20067;-49
2021/12/28 08:54:16;;;;;;;7.38;4.40;;;28.10;88.60;;;;;;5067310;28;20021;-50
2021/12/28 08:56:42;;;;;;;7.85;4.47;;;28.10;88.60;;;;;;5066802;28;20021;-48
2021/12/28 08:59:09;;;;;;;7.50;4.70;;;28.10;88.70;;;;;;5067085;28;20071;-46
2021/12/28 09:01:35;;;;;;;6.25;4.28;;;28.10;88.70;;;;;;5066839;28;20028;-46
2021/12/28 09:04:02;;;;;;;5.00;4.15;;;28.00;88.60;;;;;;5066828;28;20029;-50
2021/12/28 09:06:29;;;;;;;8.10;4.25;;;28.10;88.70;;;;;;5066765;28;20016;-50
2021/12/28 09:08:55;;;;;;;5.63;4.20;;;28.00;88.60;;;;;;5066887;28;20021;-47
2021/12/28 09:11:22;;;;;;;9.60;4.57;;;28.00;88.70;;;;;;5066559;28;20084;-51
2021/12/28 09:13:48;;;;;;;8.65;4.43;;;28.00;88.70;;;;;;5066928;28;20108;-46
2021/12/28 09:16:15;;;;;;;6.10;4.25;;;28.00;88.70;;;;;;5066561;28;20025;-45
2021/12/28 09:18:42;;;;;;;7.93;4.53;;;28.00;88.70;;;;;;5066404;28;20028;-47
2021/12/28 09:21:09;;;;;;;7.00;4.47;;;28.00;88.70;;;;;;5066415;28;20349;-50
2021/12/28 09:23:38;;;;;;;6.43;4.95;;;28.00;88.70;;;;;;5065175;28;20236;-47
2021/12/28 09:26:05;;;;;;;5.90;4.35;;;28.00;88.70;;;;;;5066290;28;20059;-51
2021/12/28 09:28:32;;;;;;;7.03;4.25;;;28.00;88.70;;;;;;5066461;28;20028;-49
2021/12/28 09:31:00;;;;;;;6.63;4.78;;;28.00;88.80;;;;;;5066207;28;20049;-52
2021/12/28 09:33:27;;;;;;;8.23;4.53;;;28.00;88.80;;;;;;5066221;28;20092;-50
2021/12/28 09:35:54;;;;;;;5.78;4.50;;;28.00;88.80;;;;;;5066272;28;20025;-55
2021/12/28 09:38:22;;;;;;;6.45;4.18;;;28.00;88.80;;;;;;5066193;28;20020;-50
2021/12/28 09:40:50;;;;;;;7.60;4.80;;;28.00;88.80;;;;;;5065981;28;20021;-48
2021/12/28 09:43:18;;;;;;;6.07;4.55;;;28.00;88.80;;;;;;5065889;28;20041;-46
2021/12/28 09:45:44;;;;;;;8.55;4.57;;;28.00;88.80;;;;;;5064702;28;20024;-48
2021/12/28 09:48:12;;;;;;;6.65;4.13;;;28.00;88.80;;;;;;5065886;28;20033;-49
2021/12/28 09:50:41;;;;;;;10.00;4.65;;;28.00;88.90;;;;;;5065772;28;20392;-50
2021/12/28 09:53:10;;;;;;;9.07;4.60;;;28.00;88.90;;;;;;5065746;28;20052;-49
2021/12/28 09:55:36;;;;;;;6.45;4.53;;;28.00;88.90;;;;;;5065648;28;20340;-46
2021/12/28 09:58:03;;;;;;;6.97;4.30;;;28.00;88.90;;;;;;5065824;28;20033;-48
2021/12/28 10:00:30;;;;;;;6.50;4.85;;;27.90;88.90;;;;;;5065727;28;20024;-49
2021/12/28 10:02:57;;;;;;;6.75;4.72;;;27.90;88.90;;;;;;5065483;28;20354;-49
2021/12/28 10:05:26;;;;;;;5.97;4.35;;;27.90;88.90;;;;;;5065611;28;20362;-47
2021/12/28 10:07:59;;;;;;;8.50;4.53;;;28.00;89.00;;;;;;5065662;28;20084;-46
2021/12/28 10:10:32;;;;;;;8.05;4.35;;;27.90;89.00;;;;;;5065381;28;20009;-50
2021/12/28 10:13:01;;;;;;;7.47;4.20;;;27.90;89.00;;;;;;5065451;28;20028;-49
2021/12/28 10:15:31;;;;;;;7.53;5.07;;;27.90;89.10;;;;;;5065437;28;20431;-50
2021/12/28 10:18:01;;;;;;;7.25;4.50;;;28.00;89.20;;;;;;5065203;28;20025;-48
2021/12/28 10:20:52;;;;;;;8.05;5.00;;;28.00;89.20;;;;;;5065308;28;20040;-46
2021/12/28 10:23:25;;;;;;;9.75;4.70;;;27.90;89.20;;;;;;5064786;28;20041;-49
2021/12/28 10:26:05;;;;;;;5.72;4.60;;;27.90;89.20;;;;;;5065210;28;20126;-53
2021/12/28 10:28:39;;;;;;;8.40;4.47;;;27.90;89.30;;;;;;5064868;28;20100;-51
2021/12/28 10:31:22;;;;;;;6.43;4.75;;;27.90;89.30;;;;;;5064810;28;20051;-51
2021/12/28 10:33:53;;;;;;;;;;;27.90;89.30;;;;;;5065686;28;20040;-51
2021/12/28 10:36:20;;;;;;;7.50;4.30;;;27.90;89.30;;;;;;5065111;28;19938;-52
2021/12/28 10:38:49;;;;;;;9.50;4.78;;;27.90;89.40;;;;;;5065120;28;20321;-53
2021/12/28 10:41:21;;;;;;;5.40;4.43;;;27.90;89.40;;;;;;5064075;28;20027;-48
2021/12/28 10:43:50;;;;;;;4.63;4.20;;;27.90;89.40;;;;;;5065121;28;20056;-48
2021/12/28 10:46:23;;;;;;;7.85;4.70;;;27.90;89.40;;;;;;5064651;28;20209;-47
2021/12/28 10:48:53;;;;;;;9.85;4.72;;;27.90;89.40;;;;;;5065010;28;20021;-52
2021/12/28 10:51:24;;;;;;;7.63;4.78;;;27.90;89.40;;;;;;5064740;28;20067;-49
2021/12/28 10:54:07;;;;;;;7.10;4.43;;;27.90;89.50;;;;;;5064619;28;20033;-47
2021/12/28 10:56:37;;;;;;;;;;;27.90;89.50;;;;;;5065028;28;20017;-46
2021/12/28 10:59:06;;;;;;;7.07;4.72;;;27.90;89.50;;;;;;5064921;28;19913;-47
2021/12/28 11:01:37;;;;;;;7.18;4.43;;;27.80;89.50;;;;;;5063876;28;20025;-48
2021/12/28 11:04:09;;;;;;;6.03;4.47;;;27.90;89.60;;;;;;5064363;28;20036;-46
2021/12/28 11:06:43;;;;;;;8.30;4.68;;;27.90;89.60;;;;;;5063848;28;20028;-55
2021/12/28 11:09:14;;;;;;;7.63;4.43;;;27.90;89.60;;;;;;5064581;28;20301;-48
2021/12/28 11:11:41;;;;;;;7.35;4.38;;;27.80;89.50;;;;;;5064617;28;20025;-51
2021/12/28 11:14:21;;;;;;;7.00;4.45;;;27.80;89.50;;;;;;5064552;28;20051;-47
2021/12/28 11:16:52;;;;;;;8.35;4.38;;;27.80;89.50;;;;;;5064097;28;20027;-49
2021/12/28 11:19:33;;;;;;;6.72;4.53;;;27.80;89.40;;;;;;5063925;28;20033;-50
2021/12/28 11:22:08;;;;;;;8.45;4.57;;;27.80;89.40;;;;;;5063931;28;20092;-44
2021/12/28 11:24:40;;;;;;;7.18;4.60;;;27.80;89.30;;;;;;5064591;28;20028;-50
2021/12/28 11:27:07;;;;;;;6.05;4.55;;;27.90;89.30;;;;;;5064104;28;20384;-50
2021/12/28 11:29:37;;;;;;;6.70;4.30;;;27.80;89.20;;;;;;5064379;28;20321;-50
2021/12/28 11:32:12;;;;;;;9.60;4.82;;;27.80;89.20;;;;;;5064017;28;20071;-51
2021/12/28 11:34:41;;;;;;;8.82;4.20;;;27.90;89.30;;;;;;5063714;28;20032;-51
2021/12/28 11:37:20;;;;;;;8.82;4.47;;;27.90;89.30;;;;;;5064083;28;20013;-49
2021/12/28 11:39:57;;;;;;;8.32;4.57;;;27.80;89.30;;;;;;5063980;28;20071;-55
2021/12/28 11:42:24;;;;;;;6.13;4.10;;;27.80;89.30;;;;;;5063710;28;20024;-53
2021/12/28 11:44:52;;;;;;;8.73;4.70;;;27.80;89.30;;;;;;5064172;28;20024;-48
2021/12/28 11:47:21;;;;;;;10.73;4.65;;;27.80;89.40;;;;;;5063706;28;20021;-49
2021/12/28 11:49:49;;;;;;;6.47;4.32;;;27.80;89.40;;;;;;5063595;28;20025;-56
2021/12/28 11:52:19;;;;;;;6.32;4.13;;;27.80;89.40;;;;;;5063710;28;20069;-59
2021/12/28 11:54:50;;;;;;;6.93;4.10;;;27.80;89.40;;;;;;5063979;28;20032;-50
2021/12/28 11:57:27;;;;;;;7.03;4.20;;;27.80;89.40;;;;;;5063700;28;20031;-51
2021/12/28 12:00:04;;;;;;;8.93;4.72;;;27.80;89.50;;;;;;5063974;28;20025;-49
2021/12/28 12:02:49;;;;;;;7.18;4.82;;;27.80;89.50;;;;;;5061421;28;20028;-54
2021/12/28 12:05:24;;;;;;;9.30;5.65;;;27.80;89.60;;;;;;5043727;28;20322;-51
2021/12/28 12:08:06;;;;;;;9.75;8.02;;;27.80;89.50;;;;;;5043429;28;20135;-51
2021/12/28 12:10:35;;;;;;;10.30;8.00;;;27.80;89.60;;;;;;5043389;28;20013;-48
2021/12/28 12:13:26;;;;;;;13.82;8.77;;;27.80;89.60;;;;;;5043508;28;20028;-50
2021/12/28 12:16:16;;;;;;;10.95;6.63;;;27.80;89.60;;;;;;5043823;28;20021;-48
2021/12/28 12:18:48;;;;;;;9.18;6.25;;;27.80;89.60;;;;;;5043042;28;20037;-54
2021/12/28 12:21:19;;;;;;;;;;;27.80;89.70;;;;;;5042353;28;20202;-47
2021/12/28 12:23:51;;;;;;;8.50;6.30;;;27.80;89.80;;;;;;5042353;28;19952;-54
2021/12/28 12:26:31;;;;;;;8.52;5.80;;;27.80;89.80;;;;;;5061615;28;20350;-45
2021/12/28 12:28:57;;;;;;;11.20;5.95;;;27.80;89.80;;;;;;5061434;28;20240;-49
2021/12/28 12:31:28;;;;;;;10.18;5.75;;;27.80;89.90;;;;;;5061854;28;20082;-59
2021/12/28 12:33:56;;;;;;;10.17;6.00;;;27.80;89.90;;;;;;5062589;28;20021;-46
2021/12/28 12:36:44;;;;;;;6.65;5.47;;;27.80;89.90;;;;;;5063272;28;20021;-53
2021/12/28 12:39:11;;;;;;;8.73;5.90;;;27.80;90.00;;;;;;5063140;28;20044;-46
2021/12/28 12:41:49;;;;;;;7.43;5.30;;;27.80;90.00;;;;;;5062645;28;20194;-47
2021/12/28 12:44:27;;;;;;;8.60;5.60;;;27.80;90.00;;;;;;5063158;28;20047;-51
2021/12/28 12:47:04;;;;;;;8.73;5.45;;;27.80;90.10;;;;;;5063339;28;20360;-46
2021/12/28 12:49:32;;;;;;;9.80;5.57;;;27.80;90.00;;;;;;5063405;28;20025;-45
2021/12/28 12:52:16;;;;;;;8.10;5.65;;;27.80;90.10;;;;;;5063328;28;20044;-51
2021/12/28 12:54:53;;;;;;;9.43;6.07;;;27.80;90.10;;;;;;5065977;28;20032;-49
2021/12/28 12:57:30;;;;;;;11.25;6.38;;;27.80;90.10;;;;;;5066973;28;20059;-48
2021/12/28 13:00:11;;;;;;;10.13;6.80;;;27.80;90.10;;;;;;5067178;28;20025;-47